createdAt,value
2018-02-21T00:00:48.051Z,21.35
2018-02-21T00:03:16.970Z,22.58
2018-02-21T00:05:45.911Z,22.15
2018-02-21T00:08:14.845Z,22.05
2018-02-21T00:10:43.702Z,21.67
2018-02-21T00:13:12.790Z,22.10
2018-02-21T00:15:41.667Z,23.80
2018-02-21T00:18:10.525Z,25.17
2018-02-21T00:20:39.377Z,19.37
2018-02-21T00:23:08.263Z,23.70
2018-02-21T00:25:37.138Z,22.42
2018-02-21T00:28:06.040Z,23.87
2018-02-21T00:30:34.928Z,24.05
2018-02-21T00:33:03.880Z,20.65
2018-02-21T00:35:32.741Z,23.95
2018-02-21T00:38:01.623Z,24.85
2018-02-21T00:40:30.482Z,22.35
2018-02-21T00:42:59.341Z,23.95
2018-02-21T00:45:28.230Z,24.55
2018-02-21T00:47:57.110Z,23.35
2018-02-21T00:50:26.069Z,21.45
2018-02-21T00:52:54.965Z,24.33
2018-02-21T00:55:23.835Z,21.85
2018-02-21T00:57:52.822Z,22.83
2018-02-21T01:00:21.713Z,23.40
2018-02-21T01:02:50.561Z,21.25
2018-02-21T01:05:19.426Z,22.92
2018-02-21T01:07:48.313Z,22.73
2018-02-21T01:10:17.169Z,22.17
2018-02-21T01:12:46.958Z,23.33
2018-02-21T01:15:22.519Z,23.15
2018-02-21T01:17:51.372Z,26.98
2018-02-21T01:20:20.230Z,22.45
2018-02-21T01:22:49.117Z,22.90
2018-02-21T01:25:22.207Z,24.37
2018-02-21T01:27:51.098Z,21.87
2018-02-21T01:30:19.965Z,25.37
2018-02-21T01:32:49.039Z,25.40
2018-02-21T01:35:17.911Z,22.33
2018-02-21T01:37:46.765Z,26.37
2018-02-21T01:40:15.628Z,24.27
2018-02-21T01:42:44.497Z,26.12
2018-02-21T01:45:13.363Z,26.20
2018-02-21T01:47:42.223Z,24.80
2018-02-21T01:50:11.093Z,24.48
2018-02-21T01:52:39.950Z,22.50
2018-02-21T01:55:08.817Z,24.15
2018-02-21T01:57:38.022Z,21.52
2018-02-21T02:00:06.888Z,21.67
2018-02-21T02:02:35.747Z,25.62
2018-02-21T02:05:04.618Z,25.35
2018-02-21T02:07:33.478Z,24.08
2018-02-21T02:10:02.333Z,25.30
2018-02-21T02:12:31.199Z,23.00
2018-02-21T02:15:00.077Z,28.38
2018-02-21T02:17:29.033Z,22.75
2018-02-21T02:19:57.924Z,27.67
2018-02-21T02:22:26.786Z,25.23
2018-02-21T02:24:55.650Z,25.33
2018-02-21T02:27:24.521Z,23.80
2018-02-21T02:29:53.376Z,23.08
2018-02-21T02:32:22.232Z,23.35
2018-02-21T02:34:51.125Z,22.00
2018-02-21T02:37:19.976Z,23.33
2018-02-21T02:39:49.724Z,25.98
2018-02-21T02:42:18.809Z,26.37
2018-02-21T02:44:47.667Z,23.00
2018-02-21T02:47:16.540Z,24.77
2018-02-21T02:49:45.433Z,25.55
2018-02-21T02:52:14.290Z,24.35
2018-02-21T02:54:43.148Z,22.35
2018-02-21T02:57:12.026Z,24.87
2018-02-21T02:59:40.903Z,25.30
2018-02-21T03:02:09.802Z,23.75
2018-02-21T03:04:38.696Z,29.17
2018-02-21T03:07:07.562Z,22.50
2018-02-21T03:09:36.409Z,25.62
2018-02-21T03:12:05.283Z,24.58
2018-02-21T03:14:34.139Z,24.80
2018-02-21T03:17:02.994Z,25.67
2018-02-21T03:19:32.209Z,26.27
2018-02-21T03:22:01.058Z,26.12
2018-02-21T03:24:29.969Z,24.30
2018-02-21T03:26:58.851Z,24.77
2018-02-21T03:29:27.713Z,28.02
2018-02-21T03:31:56.588Z,25.55
2018-02-21T03:34:25.479Z,25.90
2018-02-21T03:36:54.373Z,26.70
2018-02-21T03:39:23.226Z,27.95
2018-02-21T03:41:52.110Z,27.62
2018-02-21T03:44:20.966Z,27.48
2018-02-21T03:46:49.816Z,30.25
2018-02-21T03:49:18.685Z,29.42
2018-02-21T03:51:47.545Z,25.25
2018-02-21T03:54:16.393Z,26.33
2018-02-21T03:56:45.286Z,27.90
2018-02-21T03:59:14.149Z,29.60
2018-02-21T04:01:43.203Z,28.62
2018-02-21T04:04:12.079Z,26.20
2018-02-21T04:06:40.947Z,27.42
2018-02-21T04:09:09.814Z,28.70
2018-02-21T04:11:38.706Z,25.12
2018-02-21T04:14:07.561Z,25.37
2018-02-21T04:16:36.413Z,25.40
2018-02-21T04:19:05.312Z,27.23
2018-02-21T04:21:34.451Z,24.90
2018-02-21T04:24:03.313Z,28.50
2018-02-21T04:26:32.201Z,28.48
2018-02-21T04:29:01.134Z,23.60
2018-02-21T04:31:29.998Z,27.17
2018-02-21T04:33:58.909Z,30.85
2018-02-21T04:36:27.756Z,29.02
2018-02-21T04:38:56.621Z,27.05
2018-02-21T04:41:25.508Z,26.60
2018-02-21T04:43:54.380Z,27.45
2018-02-21T04:46:23.246Z,26.40
2018-02-21T04:48:52.161Z,32.13
2018-02-21T04:51:21.181Z,28.75
2018-02-21T04:53:50.039Z,28.02
2018-02-21T04:56:31.638Z,27.33
2018-02-21T04:59:15.270Z,28.20
2018-02-21T05:01:44.293Z,29.17
2018-02-21T05:04:13.150Z,28.45
2018-02-21T05:06:42.024Z,27.65
2018-02-21T05:09:10.913Z,27.98
2018-02-21T05:11:39.770Z,28.55
2018-02-21T05:14:08.622Z,28.40
2018-02-21T05:16:37.509Z,27.23
2018-02-21T05:19:06.362Z,27.20
2018-02-21T05:21:35.561Z,26.08
2018-02-21T05:24:04.439Z,27.27
2018-02-21T05:26:33.301Z,30.42
2018-02-21T05:29:02.149Z,27.25
2018-02-21T05:31:31.049Z,25.02
2018-02-21T05:34:14.820Z,28.15
2018-02-21T05:36:43.919Z,28.12
2018-02-21T05:39:12.789Z,29.37
2018-02-21T05:41:41.652Z,32.20
2018-02-21T05:44:10.544Z,25.77
2018-02-21T05:46:39.408Z,31.42
2018-02-21T05:49:08.268Z,28.75
2018-02-21T05:51:37.157Z,29.85
2018-02-21T05:54:06.002Z,27.27
2018-02-21T05:56:34.866Z,28.12
2018-02-21T05:59:03.744Z,26.83
2018-02-21T06:01:32.797Z,28.50
2018-02-21T06:04:01.672Z,31.02
2018-02-21T06:06:30.573Z,28.40
2018-02-21T06:08:59.442Z,27.62
2018-02-21T06:11:28.322Z,27.10
2018-02-21T06:13:57.195Z,26.52
2018-02-21T06:16:26.388Z,28.20
2018-02-21T06:18:55.266Z,26.80
2018-02-21T06:21:24.159Z,29.40
2018-02-21T06:23:53.369Z,25.77
2018-02-21T06:26:22.273Z,28.52
2018-02-21T06:28:51.152Z,29.30
2018-02-21T06:31:20.011Z,26.70
2018-02-21T06:33:48.896Z,27.65
2018-02-21T06:36:17.777Z,25.92
2018-02-21T06:38:47.711Z,27.02
2018-02-21T06:41:16.571Z,26.25
2018-02-21T06:43:45.639Z,27.60
2018-02-21T06:46:14.890Z,26.42
2018-02-21T06:48:43.942Z,26.00
2018-02-21T06:51:12.965Z,29.42
2018-02-21T06:53:41.821Z,26.10
2018-02-21T06:56:10.679Z,27.90
2018-02-21T06:58:39.810Z,27.58
2018-02-21T07:01:08.694Z,29.12
2018-02-21T07:03:37.600Z,27.02
2018-02-21T07:06:06.476Z,30.35
2018-02-21T07:08:35.379Z,30.23
2018-02-21T07:11:04.251Z,24.83
2018-02-21T07:13:33.146Z,27.58
2018-02-21T07:16:02.164Z,27.33
2018-02-21T07:18:31.036Z,25.75
2018-02-21T07:20:59.926Z,23.85
2018-02-21T07:23:29.615Z,27.75
2018-02-21T07:25:58.595Z,26.20
2018-02-21T07:28:27.572Z,29.67
2018-02-21T07:30:56.480Z,29.20
2018-02-21T07:33:25.405Z,27.67
2018-02-21T07:35:54.457Z,27.80
2018-02-21T07:38:23.374Z,26.25
2018-02-21T07:40:52.325Z,26.75
2018-02-21T07:43:21.247Z,24.15
2018-02-21T07:45:50.110Z,24.98
2018-02-21T07:48:18.971Z,29.02
2018-02-21T07:50:47.852Z,27.17
2018-02-21T07:53:17.007Z,28.85
2018-02-21T07:55:45.929Z,25.98
2018-02-21T07:58:14.973Z,25.60
2018-02-21T08:00:43.878Z,28.42
2018-02-21T08:03:12.733Z,30.55
2018-02-21T08:05:41.817Z,26.87
2018-02-21T08:08:10.673Z,25.15
2018-02-21T08:10:39.541Z,25.85
2018-02-21T08:13:08.410Z,27.90
2018-02-21T08:15:37.377Z,25.20
2018-02-21T08:18:06.234Z,29.67
2018-02-21T08:20:35.152Z,27.00
2018-02-21T08:23:04.034Z,26.60
2018-02-21T08:25:32.886Z,28.87
2018-02-21T08:28:01.938Z,27.33
2018-02-21T08:30:30.794Z,27.83
2018-02-21T08:32:59.647Z,28.30
2018-02-21T08:35:28.547Z,26.60
2018-02-21T08:37:57.401Z,25.37
2018-02-21T08:40:26.551Z,26.00
2018-02-21T08:42:55.456Z,26.00
2018-02-21T08:45:24.312Z,27.20
2018-02-21T08:47:53.164Z,29.20
2018-02-21T08:50:22.034Z,27.20
2018-02-21T08:52:50.878Z,25.17
2018-02-21T08:55:19.972Z,25.80
2018-02-21T08:57:49.048Z,27.70
2018-02-21T09:00:18.201Z,26.80
2018-02-21T09:02:47.058Z,25.97
2018-02-21T09:05:16.352Z,22.97
2018-02-21T09:07:45.359Z,26.40
2018-02-21T09:10:14.207Z,25.00
2018-02-21T09:12:43.100Z,24.27
2018-02-21T09:15:11.946Z,24.83
2018-02-21T09:17:40.794Z,25.27
2018-02-21T09:20:09.670Z,26.70
2018-02-21T09:22:38.824Z,26.47
2018-02-21T09:25:07.665Z,26.10
2018-02-21T09:27:36.547Z,25.37
2018-02-21T09:30:05.790Z,23.63
2018-02-21T09:32:34.657Z,22.47
2018-02-21T09:35:03.543Z,24.70
2018-02-21T09:37:32.393Z,26.27
2018-02-21T09:40:01.243Z,24.93
2018-02-21T09:42:30.118Z,23.17
2018-02-21T09:44:58.970Z,24.83
2018-02-21T09:47:27.834Z,25.03
2018-02-21T09:49:56.706Z,25.13
2018-02-21T09:52:25.554Z,25.20
2018-02-21T09:54:54.418Z,25.90
2018-02-21T09:57:23.301Z,24.00
2018-02-21T09:59:52.156Z,26.00
2018-02-21T10:02:21.009Z,25.80
2018-02-21T10:04:49.912Z,24.70
2018-02-21T10:07:18.760Z,24.00
2018-02-21T10:09:47.601Z,23.53
2018-02-21T10:12:16.494Z,24.33
2018-02-21T10:14:45.334Z,23.50
2018-02-21T10:17:14.261Z,23.40
2018-02-21T10:19:43.134Z,21.23
2018-02-21T10:22:11.992Z,21.70
2018-02-21T10:24:40.850Z,22.00
2018-02-21T10:27:09.734Z,20.60
2018-02-21T10:29:38.587Z,22.83
2018-02-21T10:32:07.887Z,21.97
2018-02-21T10:34:36.749Z,18.83
2018-02-21T10:37:05.844Z,21.10
2018-02-21T10:39:34.693Z,17.70
2018-02-21T10:42:03.583Z,22.00
2018-02-21T10:44:32.430Z,19.80
2018-02-21T10:47:01.278Z,19.20
2018-02-21T10:49:30.154Z,20.47
2018-02-21T10:51:59.006Z,19.67
2018-02-21T10:54:27.851Z,19.03
2018-02-21T10:56:56.774Z,20.40
2018-02-21T10:59:26.036Z,18.13
2018-02-21T11:01:54.927Z,20.73
2018-02-21T11:04:23.803Z,20.00
2018-02-21T11:06:52.673Z,19.80
2018-02-21T11:09:21.516Z,22.30
2018-02-21T11:11:50.382Z,19.60
2018-02-21T11:14:19.244Z,18.33
2018-02-21T11:16:48.081Z,15.90
2018-02-21T11:19:16.994Z,18.97
2018-02-21T11:21:45.846Z,18.27
2018-02-21T11:24:14.889Z,15.90
2018-02-21T11:26:43.769Z,17.67
2018-02-21T11:29:12.643Z,19.93
2018-02-21T11:31:41.489Z,17.80
2018-02-21T11:34:10.569Z,19.93
2018-02-21T11:36:39.417Z,18.87
2018-02-21T11:39:08.264Z,17.60
2018-02-21T11:41:37.530Z,19.20
2018-02-21T11:44:06.375Z,16.33
2018-02-21T11:46:35.502Z,15.13
2018-02-21T11:49:04.421Z,14.60
2018-02-21T11:51:33.257Z,14.43
2018-02-21T11:54:02.198Z,18.50
2018-02-21T11:56:31.104Z,17.40
2018-02-21T11:59:00.001Z,15.60
2018-02-21T12:01:28.858Z,14.43
2018-02-21T12:03:57.828Z,15.13
2018-02-21T12:06:26.676Z,15.00
2018-02-21T12:08:55.777Z,13.47
2018-02-21T12:11:24.673Z,15.30
2018-02-21T12:13:53.707Z,15.20
2018-02-21T12:16:22.546Z,14.10
2018-02-21T12:18:51.430Z,13.20
2018-02-21T12:21:20.270Z,14.27
2018-02-21T12:23:49.123Z,15.83
2018-02-21T12:26:18.049Z,13.70
2018-02-21T12:28:47.590Z,17.23
2018-02-21T12:31:16.692Z,17.40
2018-02-21T12:33:45.573Z,17.17
2018-02-21T12:36:14.820Z,16.27
2018-02-21T12:38:43.685Z,17.63
2018-02-21T12:41:18.327Z,17.20
2018-02-21T12:43:47.165Z,17.00
2018-02-21T12:46:16.213Z,17.57
2018-02-21T12:48:45.099Z,15.83
2018-02-21T12:51:13.978Z,16.87
2018-02-21T12:53:42.857Z,16.23
2018-02-21T12:56:11.718Z,16.17
2018-02-21T12:58:40.565Z,17.10
2018-02-21T13:01:09.416Z,17.60
2018-02-21T13:03:38.301Z,15.80
2018-02-21T13:06:07.138Z,17.43
2018-02-21T13:08:36.170Z,15.50
2018-02-21T13:11:05.106Z,14.87
2018-02-21T13:13:34.407Z,16.40
2018-02-21T13:16:03.274Z,14.70
2018-02-21T13:18:32.141Z,15.40
2018-02-21T13:21:00.985Z,16.67
2018-02-21T13:23:29.825Z,15.90
2018-02-21T13:25:58.705Z,14.33
2018-02-21T13:28:27.557Z,15.60
2018-02-21T13:30:55.059Z,16.03
2018-02-21T13:33:22.587Z,16.23
2018-02-21T13:35:50.106Z,15.37
2018-02-21T13:38:17.798Z,14.50
2018-02-21T13:40:45.319Z,14.77
2018-02-21T13:43:13.595Z,14.00
2018-02-21T13:45:41.866Z,14.40
2018-02-21T13:48:10.159Z,14.87
2018-02-21T13:50:39.021Z,13.73
2018-02-21T13:53:07.870Z,15.20
2018-02-21T13:55:36.752Z,16.43
2018-02-21T13:58:05.622Z,15.30
2018-02-21T14:00:34.474Z,15.77
2018-02-21T14:03:03.340Z,14.27
2018-02-21T14:05:32.184Z,14.97
2018-02-21T14:08:01.029Z,14.70
2018-02-21T14:10:29.889Z,16.73
2018-02-21T14:12:58.729Z,15.27
2018-02-21T14:15:27.571Z,14.07
2018-02-21T14:17:56.445Z,14.40
2018-02-21T14:20:25.346Z,17.13
2018-02-21T14:22:55.095Z,16.00
2018-02-21T14:25:23.960Z,16.40
2018-02-21T14:27:52.863Z,15.00
2018-02-21T14:30:21.704Z,16.00
2018-02-21T14:32:50.578Z,15.77
2018-02-21T14:35:19.559Z,14.50
2018-02-21T14:37:48.411Z,16.03
2018-02-21T14:40:17.602Z,13.87
2018-02-21T14:42:46.485Z,14.20
2018-02-21T14:45:15.343Z,15.30
2018-02-21T14:47:44.254Z,13.57
2018-02-21T14:50:13.113Z,15.80
2018-02-21T14:52:41.986Z,11.97
2018-02-21T14:55:10.866Z,15.87
2018-02-21T14:57:39.721Z,13.23
2018-02-21T15:00:09.020Z,11.97
2018-02-21T15:02:37.905Z,11.67
2018-02-21T15:05:06.987Z,12.70
2018-02-21T15:07:35.859Z,13.27
2018-02-21T15:10:03.396Z,17.17
2018-02-21T15:12:30.914Z,15.90
2018-02-21T15:14:58.415Z,13.40
2018-02-21T15:17:25.978Z,13.43
2018-02-21T15:19:53.533Z,15.00
2018-02-21T15:22:21.028Z,17.60
2018-02-21T15:24:49.114Z,15.20
2018-02-21T15:27:16.625Z,17.30
2018-02-21T15:29:44.136Z,14.50
2018-02-21T15:32:13.005Z,18.80
2018-02-21T15:34:40.532Z,15.20
2018-02-21T15:37:08.299Z,15.67
2018-02-21T15:39:36.991Z,16.57
2018-02-21T15:42:04.683Z,16.63
2018-02-21T15:44:32.224Z,16.77
2018-02-21T15:46:59.759Z,14.93
2018-02-21T15:49:28.775Z,15.80
2018-02-21T15:51:56.325Z,18.73
2018-02-21T15:54:23.874Z,15.03
2018-02-21T15:56:51.380Z,17.90
2018-02-21T15:59:18.883Z,15.93
2018-02-21T16:01:46.440Z,17.27
2018-02-21T16:04:14.706Z,16.40
2018-02-21T16:06:42.215Z,14.90
2018-02-21T16:09:10.632Z,16.07
2018-02-21T16:11:38.145Z,17.90
2018-02-21T16:14:05.694Z,17.20
2018-02-21T16:16:33.235Z,16.63
2018-02-21T16:19:01.780Z,16.20
2018-02-21T16:21:29.303Z,17.77
2018-02-21T16:23:56.924Z,15.53
2018-02-21T16:26:25.245Z,16.63
2018-02-21T16:28:52.753Z,16.80
2018-02-21T16:31:20.282Z,15.50
2018-02-21T16:33:47.861Z,15.57
2018-02-21T16:36:15.357Z,16.03
2018-02-21T16:38:42.944Z,18.30
2018-02-21T16:41:10.441Z,16.00
2018-02-21T16:43:38.367Z,17.37
2018-02-21T16:46:05.886Z,17.13
2018-02-21T16:48:34.156Z,16.60
2018-02-21T16:51:01.655Z,17.00
2018-02-21T16:53:29.190Z,17.67
2018-02-21T16:55:56.826Z,18.37
2018-02-21T16:58:24.526Z,20.00
2018-02-21T17:00:52.107Z,19.00
2018-02-21T17:03:19.621Z,16.57
2018-02-21T17:05:47.124Z,17.30
2018-02-21T17:08:14.954Z,18.63
2018-02-21T17:10:42.455Z,18.90
2018-02-21T17:13:11.013Z,16.57
2018-02-21T17:15:39.310Z,18.90
2018-02-21T17:18:06.898Z,17.53
2018-02-21T17:20:34.406Z,18.13
2018-02-21T17:23:02.692Z,17.57
2018-02-21T17:25:30.195Z,17.63
2018-02-21T17:27:57.723Z,17.97
2018-02-21T17:30:25.295Z,19.13
2018-02-21T17:32:53.527Z,16.80
2018-02-21T17:35:21.935Z,17.80
2018-02-21T17:37:49.479Z,19.37
2018-02-21T17:40:17.855Z,17.60
2018-02-21T17:42:45.350Z,17.83
2018-02-21T17:45:13.224Z,18.00
2018-02-21T17:47:40.722Z,17.27
2018-02-21T17:50:08.233Z,17.50
2018-02-21T17:52:35.767Z,15.47
2018-02-21T17:55:03.269Z,16.13
2018-02-21T17:57:30.855Z,18.10
2018-02-21T17:59:58.407Z,17.40
2018-02-21T18:02:25.983Z,17.00
2018-02-21T18:04:53.497Z,17.40
2018-02-21T18:07:21.027Z,16.63
2018-02-21T18:09:49.298Z,16.77
2018-02-21T18:12:17.577Z,19.70
2018-02-21T18:14:45.865Z,14.70
2018-02-21T18:17:13.375Z,17.90
2018-02-21T18:19:40.890Z,20.60
2018-02-21T18:22:08.718Z,21.23
2018-02-21T18:24:36.234Z,17.43
2018-02-21T18:27:03.754Z,16.97
2018-02-21T18:29:32.060Z,15.43
2018-02-21T18:31:59.558Z,16.60
2018-02-21T18:34:27.390Z,16.70
2018-02-21T18:36:54.959Z,17.60
2018-02-21T18:39:22.458Z,15.60
2018-02-21T18:41:49.958Z,17.70
2018-02-21T18:44:17.488Z,16.60
2018-02-21T18:46:46.152Z,19.60
2018-02-21T18:49:13.658Z,17.50
2018-02-21T18:51:41.186Z,16.10
2018-02-21T18:54:08.698Z,16.47
2018-02-21T18:56:36.234Z,15.57
2018-02-21T18:59:03.918Z,16.80
2018-02-21T19:01:31.672Z,15.37
2018-02-21T19:03:59.368Z,16.13
2018-02-21T19:06:27.055Z,15.30
2018-02-21T19:08:55.560Z,16.77
2018-02-21T19:11:24.452Z,16.13
2018-02-21T19:13:52.127Z,15.80
2018-02-21T19:16:19.765Z,18.37
2018-02-21T19:18:47.386Z,16.67
2018-02-21T19:21:15.100Z,15.83
2018-02-21T19:23:43.024Z,15.20
2018-02-21T19:26:10.783Z,15.97
2018-02-21T19:28:38.585Z,15.47
2018-02-21T19:31:06.284Z,15.77
2018-02-21T19:33:34.027Z,15.47
2018-02-21T19:36:01.627Z,15.60
2018-02-21T19:38:29.158Z,12.60
2018-02-21T19:40:56.949Z,12.60
2018-02-21T19:43:24.561Z,14.40
2018-02-21T19:45:52.148Z,14.13
2018-02-21T19:48:19.870Z,14.17
2018-02-21T19:50:47.394Z,15.07
2018-02-21T19:53:14.982Z,14.93
2018-02-21T19:55:42.637Z,15.80
2018-02-21T19:58:10.330Z,14.37
2018-02-21T20:00:37.967Z,15.63
2018-02-21T20:03:05.612Z,16.67
2018-02-21T20:05:33.161Z,13.10
2018-02-21T20:08:00.694Z,15.47
2018-02-21T20:10:29.039Z,14.53
2018-02-21T20:12:56.864Z,14.43
2018-02-21T20:15:24.373Z,13.50
2018-02-21T20:17:52.072Z,12.90
2018-02-21T20:20:19.974Z,13.93
2018-02-21T20:22:47.697Z,14.20
2018-02-21T20:25:15.891Z,13.00
2018-02-21T20:27:43.624Z,13.77
2018-02-21T20:30:11.479Z,12.73
2018-02-21T20:32:39.438Z,14.10
2018-02-21T20:35:07.087Z,13.50
2018-02-21T20:37:34.665Z,12.17
2018-02-21T20:40:03.016Z,13.00
2018-02-21T20:42:30.634Z,12.30
2018-02-21T20:44:58.231Z,13.07
2018-02-21T20:47:26.018Z,12.85
2018-02-21T20:49:54.043Z,12.73
2018-02-21T20:52:21.589Z,12.30
2018-02-21T20:54:49.442Z,12.37
2018-02-21T20:57:17.519Z,12.13
2018-02-21T20:59:45.815Z,12.50
2018-02-21T21:02:13.382Z,12.23
2018-02-21T21:04:41.691Z,12.90
2018-02-21T21:07:09.206Z,12.83
2018-02-21T21:09:38.141Z,13.47
2018-02-21T21:12:05.658Z,12.80
2018-02-21T21:14:34.144Z,11.10
2018-02-21T21:17:01.689Z,13.10
2018-02-21T21:19:29.210Z,11.93
2018-02-21T21:21:56.723Z,13.57
2018-02-21T21:24:25.009Z,13.87
2018-02-21T21:26:52.545Z,11.60
2018-02-21T21:29:20.823Z,12.00
2018-02-21T21:31:49.111Z,13.98
2018-02-21T21:34:17.411Z,11.55
2018-02-21T21:36:44.925Z,11.68
2018-02-21T21:39:12.717Z,11.67
2018-02-21T21:41:41.008Z,11.52
2018-02-21T21:44:08.523Z,12.93
2018-02-21T21:46:36.043Z,12.50
2018-02-21T21:49:03.585Z,11.50
2018-02-21T21:51:31.406Z,10.13
2018-02-21T21:53:58.930Z,10.30
2018-02-21T21:56:26.509Z,11.80
2018-02-21T21:58:53.994Z,11.30
2018-02-21T22:01:22.430Z,11.13
2018-02-21T22:03:50.732Z,11.60
2018-02-21T22:06:18.246Z,9.65
2018-02-21T22:08:45.768Z,10.32
2018-02-21T22:11:13.302Z,11.77
2018-02-21T22:13:40.810Z,9.35
2018-02-21T22:16:09.086Z,9.53
2018-02-21T22:18:36.875Z,9.38
2018-02-21T22:21:04.390Z,9.95
2018-02-21T22:23:31.899Z,11.43
2018-02-21T22:25:59.535Z,10.10
2018-02-21T22:28:27.376Z,11.60
2018-02-21T22:30:54.886Z,9.37
2018-02-21T22:33:22.430Z,10.90
2018-02-21T22:35:49.941Z,10.77
2018-02-21T22:38:17.453Z,11.15
2018-02-21T22:40:44.982Z,10.10
2018-02-21T22:43:13.254Z,10.52
2018-02-21T22:45:40.758Z,10.60
2018-02-21T22:48:08.290Z,10.17
2018-02-21T22:50:35.822Z,10.02
2018-02-21T22:53:03.594Z,9.32
2018-02-21T22:55:31.129Z,8.98
2018-02-21T22:57:58.647Z,10.60
2018-02-21T23:00:26.418Z,9.60
2018-02-21T23:02:53.955Z,10.80
2018-02-21T23:05:22.235Z,10.13
2018-02-21T23:07:50.509Z,11.10
2018-02-21T23:10:18.819Z,10.43
2018-02-21T23:12:46.326Z,10.27
2018-02-21T23:15:13.831Z,9.73
2018-02-21T23:17:41.477Z,9.90
2018-02-21T23:20:08.986Z,10.32
2018-02-21T23:22:37.258Z,10.27
2018-02-21T23:25:04.782Z,9.63
2018-02-21T23:27:32.307Z,10.50
2018-02-21T23:29:59.816Z,10.00
2018-02-21T23:32:27.358Z,11.30
2018-02-21T23:34:54.874Z,11.20
2018-02-21T23:37:22.378Z,11.70
2018-02-21T23:39:49.909Z,9.63
2018-02-21T23:42:17.644Z,10.02
2018-02-21T23:44:45.166Z,11.18
2018-02-21T23:47:12.711Z,9.95
2018-02-21T23:49:41.118Z,9.65
2018-02-21T23:52:08.598Z,9.02
2018-02-21T23:54:36.430Z,9.85
2018-02-21T23:57:03.935Z,9.90
2018-02-21T23:59:31.441Z,9.15
